createdAt,value
2023-01-17T00:00:49.844Z,8.96
2023-01-17T00:02:53.560Z,9.00
2023-01-17T00:04:55.175Z,8.94
2023-01-17T00:06:56.731Z,8.94
2023-01-17T00:08:59.694Z,8.96
2023-01-17T00:11:01.259Z,9.01
2023-01-17T00:13:03.317Z,8.83
2023-01-17T00:15:06.338Z,8.91
2023-01-17T00:17:08.024Z,8.94
2023-01-17T00:19:09.724Z,9.00
2023-01-17T00:21:11.285Z,8.93
2023-01-17T00:23:16.289Z,8.90
2023-01-17T00:25:21.119Z,8.90
2023-01-17T00:27:23.182Z,8.94
2023-01-17T00:29:26.785Z,8.95
2023-01-17T00:31:28.328Z,8.90
2023-01-17T00:33:30.215Z,8.87
2023-01-17T00:35:32.779Z,8.82
2023-01-17T00:37:34.409Z,8.74
2023-01-17T00:39:35.893Z,8.77
2023-01-17T00:41:38.789Z,8.74
2023-01-17T00:43:40.761Z,8.80
2023-01-17T00:45:43.982Z,8.73
2023-01-17T00:47:49.748Z,8.70
2023-01-17T00:49:51.303Z,8.64
2023-01-17T00:51:53.339Z,8.57
2023-01-17T00:53:54.962Z,8.46
2023-01-17T00:56:00.615Z,8.48
2023-01-17T00:58:06.907Z,8.47
2023-01-17T01:00:09.529Z,8.51
2023-01-17T01:02:11.318Z,8.48
2023-01-17T01:04:12.823Z,8.44
2023-01-17T01:06:14.328Z,8.51
2023-01-17T01:08:20.305Z,8.47
2023-01-17T01:10:21.871Z,8.52
2023-01-17T01:12:23.437Z,8.45
2023-01-17T01:14:26.348Z,8.52
2023-01-17T01:16:28.042Z,8.53
2023-01-17T01:18:29.695Z,8.58
2023-01-17T01:20:31.177Z,8.43
2023-01-17T01:22:32.653Z,8.39
2023-01-17T01:24:34.288Z,8.41
2023-01-17T01:26:36.194Z,8.42
2023-01-17T01:28:37.784Z,8.38
2023-01-17T01:30:40.744Z,8.32
2023-01-17T01:32:42.438Z,8.41
2023-01-17T01:34:43.983Z,8.42
2023-01-17T01:36:45.570Z,8.35
2023-01-17T01:38:47.097Z,8.43
2023-01-17T01:40:50.693Z,8.41
2023-01-17T01:42:54.097Z,8.43
2023-01-17T01:44:56.150Z,8.42
2023-01-17T01:46:59.084Z,8.42
2023-01-17T01:49:04.533Z,8.42
2023-01-17T01:51:09.614Z,8.44
2023-01-17T01:53:14.463Z,8.38
2023-01-17T01:55:19.014Z,8.39
2023-01-17T01:57:23.981Z,8.46
2023-01-17T01:59:26.033Z,8.45
2023-01-17T02:01:29.330Z,8.41
2023-01-17T02:03:33.338Z,8.37
2023-01-17T02:05:35.440Z,8.30
2023-01-17T02:07:43.302Z,8.26
2023-01-17T02:09:45.637Z,8.26
2023-01-17T02:11:48.869Z,8.26
2023-01-17T02:13:50.426Z,8.28
2023-01-17T02:16:01.598Z,8.22
2023-01-17T02:18:11.444Z,8.23
2023-01-17T02:20:42.433Z,8.22
2023-01-17T02:23:20.186Z,8.11
2023-01-17T02:25:43.770Z,8.08
2023-01-17T02:28:03.013Z,8.07
2023-01-17T02:30:27.385Z,8.04
2023-01-17T02:32:39.945Z,8.11
2023-01-17T02:34:47.253Z,8.15
2023-01-17T02:36:55.740Z,8.23
2023-01-17T02:39:05.951Z,8.18
2023-01-17T02:41:13.625Z,8.25
2023-01-17T02:43:18.349Z,8.27
2023-01-17T02:45:21.880Z,8.37
2023-01-17T02:47:25.552Z,8.34
2023-01-17T02:49:30.344Z,8.40
2023-01-17T02:51:51.203Z,8.43
2023-01-17T02:54:07.715Z,8.38
2023-01-17T02:56:19.580Z,8.37
2023-01-17T02:58:45.955Z,8.33
2023-01-17T03:01:02.592Z,8.36
2023-01-17T03:03:14.140Z,8.22
2023-01-17T03:05:20.526Z,8.23
2023-01-17T03:07:25.826Z,8.21
2023-01-17T03:09:29.980Z,8.09
2023-01-17T03:11:31.523Z,8.05
2023-01-17T03:13:33.206Z,8.08
2023-01-17T03:15:34.750Z,8.13
2023-01-17T03:17:40.898Z,8.15
2023-01-17T03:19:42.549Z,8.13
2023-01-17T03:21:44.172Z,8.14
2023-01-17T03:23:45.823Z,8.12
2023-01-17T03:25:47.396Z,8.03
2023-01-17T03:27:48.916Z,7.98
2023-01-17T03:29:50.474Z,7.87
2023-01-17T03:31:52.026Z,7.84
2023-01-17T03:33:54.990Z,7.84
2023-01-17T03:35:56.735Z,7.82
2023-01-17T03:37:58.424Z,7.85
2023-01-17T03:39:59.987Z,7.80
2023-01-17T03:42:01.591Z,7.82
2023-01-17T03:44:03.128Z,7.80
2023-01-17T03:46:06.597Z,7.83
2023-01-17T03:48:08.233Z,7.90
2023-01-17T03:50:12.691Z,7.92
2023-01-17T03:52:14.287Z,7.95
2023-01-17T03:54:15.885Z,7.87
2023-01-17T03:56:17.856Z,7.93
2023-01-17T03:58:19.609Z,7.93
2023-01-17T04:00:21.549Z,7.83
2023-01-17T04:02:23.144Z,7.88
2023-01-17T04:04:24.615Z,7.76
2023-01-17T04:06:27.534Z,7.76
2023-01-17T04:08:29.525Z,7.80
2023-01-17T04:10:31.003Z,7.82
2023-01-17T04:12:32.562Z,7.84
2023-01-17T04:14:34.122Z,7.85
2023-01-17T04:16:37.897Z,7.88
2023-01-17T04:18:39.747Z,7.93
2023-01-17T04:20:41.356Z,7.96
2023-01-17T04:22:44.210Z,7.93
2023-01-17T04:24:45.744Z,7.99
2023-01-17T04:26:47.419Z,8.03
2023-01-17T04:28:49.247Z,8.06
2023-01-17T04:30:50.835Z,8.05
2023-01-17T04:32:52.563Z,7.98
2023-01-17T04:34:54.193Z,7.92
2023-01-17T04:36:55.736Z,7.97
2023-01-17T04:38:58.698Z,7.94
2023-01-17T04:41:00.200Z,7.97
2023-01-17T04:43:01.804Z,7.96
2023-01-17T04:45:03.453Z,7.88
2023-01-17T04:47:08.014Z,7.91
2023-01-17T04:49:09.519Z,7.87
2023-01-17T04:51:11.079Z,7.92
2023-01-17T04:53:12.588Z,7.91
2023-01-17T04:55:15.586Z,7.91
2023-01-17T04:57:17.740Z,7.82
2023-01-17T04:59:19.257Z,7.84
2023-01-17T05:01:20.849Z,7.92
2023-01-17T05:03:23.033Z,7.92
2023-01-17T05:05:24.653Z,7.88
2023-01-17T05:07:26.194Z,7.91
2023-01-17T05:09:27.740Z,7.94
2023-01-17T05:11:30.645Z,7.96
2023-01-17T05:13:32.342Z,7.94
2023-01-17T05:15:33.858Z,7.85
2023-01-17T05:17:35.470Z,7.84
2023-01-17T05:19:37.249Z,7.86
2023-01-17T05:21:38.764Z,7.84
2023-01-17T05:23:40.302Z,7.83
2023-01-17T05:25:41.863Z,7.85
2023-01-17T05:27:44.727Z,7.87
2023-01-17T05:29:46.239Z,7.90
2023-01-17T05:31:47.774Z,7.93
2023-01-17T05:33:49.259Z,8.00
2023-01-17T05:35:50.816Z,7.98
2023-01-17T05:37:53.158Z,8.00
2023-01-17T05:39:54.710Z,8.02
2023-01-17T05:41:56.418Z,7.99
2023-01-17T05:43:59.335Z,8.01
2023-01-17T05:46:00.916Z,7.96
2023-01-17T05:48:03.530Z,7.95
2023-01-17T05:50:05.674Z,7.93
2023-01-17T05:52:07.305Z,7.95
2023-01-17T05:54:08.831Z,7.94
2023-01-17T05:56:10.431Z,7.94
2023-01-17T05:58:15.283Z,7.97
2023-01-17T06:00:19.060Z,7.95
2023-01-17T06:02:20.632Z,7.97
2023-01-17T06:04:22.203Z,7.95
2023-01-17T06:06:23.766Z,7.93
2023-01-17T06:08:25.437Z,7.95
2023-01-17T06:10:27.657Z,7.94
2023-01-17T06:12:29.373Z,7.93
2023-01-17T06:14:30.961Z,7.95
2023-01-17T06:16:33.840Z,7.97
2023-01-17T06:18:35.421Z,7.97
2023-01-17T06:20:37.336Z,8.02
2023-01-17T06:22:39.054Z,8.05
2023-01-17T06:24:40.623Z,8.05
2023-01-17T06:26:43.473Z,8.05
2023-01-17T06:28:45.020Z,8.06
2023-01-17T06:30:47.418Z,8.04
2023-01-17T06:32:53.721Z,8.08
2023-01-17T06:34:55.286Z,8.10
2023-01-17T06:36:57.063Z,8.09
2023-01-17T06:38:59.041Z,8.11
2023-01-17T06:41:04.169Z,8.11
2023-01-17T06:43:05.961Z,8.13
2023-01-17T06:45:08.654Z,8.10
2023-01-17T06:47:10.229Z,8.12
2023-01-17T06:49:13.082Z,8.10
2023-01-17T06:51:14.878Z,8.09
2023-01-17T06:53:16.635Z,8.08
2023-01-17T06:55:18.153Z,8.10
2023-01-17T06:57:19.702Z,8.07
2023-01-17T06:59:21.208Z,8.08
2023-01-17T07:01:23.217Z,8.10
2023-01-17T07:03:26.301Z,8.15
2023-01-17T07:05:29.190Z,8.13
2023-01-17T07:07:33.775Z,8.14
2023-01-17T07:09:35.515Z,8.14
2023-01-17T07:11:37.121Z,8.11
2023-01-17T07:13:39.357Z,8.10
2023-01-17T07:15:40.969Z,8.07
2023-01-17T07:17:42.546Z,8.07
2023-01-17T07:19:44.083Z,8.10
2023-01-17T07:21:47.129Z,8.11
2023-01-17T07:23:48.876Z,8.11
2023-01-17T07:25:54.466Z,8.17
2023-01-17T07:27:56.153Z,8.22
2023-01-17T07:29:57.813Z,8.19
2023-01-17T07:31:59.481Z,8.18
2023-01-17T07:34:01.057Z,8.21
2023-01-17T07:36:04.662Z,8.23
2023-01-17T07:38:07.655Z,8.22
2023-01-17T07:40:10.564Z,8.23
2023-01-17T07:42:12.139Z,8.10
2023-01-17T07:44:13.962Z,8.13
2023-01-17T07:46:15.548Z,8.11
2023-01-17T07:48:18.141Z,8.12
2023-01-17T07:50:19.631Z,8.11
2023-01-17T07:52:21.188Z,8.09
2023-01-17T07:54:24.090Z,8.09
2023-01-17T07:56:25.628Z,8.06
2023-01-17T07:58:27.363Z,8.07
2023-01-17T08:00:29.263Z,8.07
2023-01-17T08:02:30.930Z,8.07
2023-01-17T08:04:32.744Z,8.07
2023-01-17T08:06:34.281Z,8.10
2023-01-17T08:08:35.818Z,8.07
2023-01-17T08:10:38.844Z,8.01
2023-01-17T08:12:40.361Z,8.01
2023-01-17T08:14:41.926Z,7.99
2023-01-17T08:16:43.570Z,7.99
2023-01-17T08:18:45.153Z,8.01
2023-01-17T08:20:47.027Z,7.96
2023-01-17T08:22:48.633Z,7.97
2023-01-17T08:24:50.206Z,7.96
2023-01-17T08:26:53.279Z,8.01
2023-01-17T08:28:55.907Z,7.96
2023-01-17T08:30:57.501Z,7.96
2023-01-17T08:32:59.067Z,7.97
2023-01-17T08:35:00.660Z,8.00
2023-01-17T08:37:02.251Z,8.06
2023-01-17T08:39:03.884Z,8.09
2023-01-17T08:41:05.967Z,8.12
2023-01-17T08:43:09.567Z,8.15
2023-01-17T08:45:12.565Z,8.17
2023-01-17T08:47:14.181Z,8.15
2023-01-17T08:49:15.699Z,8.14
2023-01-17T08:51:17.225Z,8.18
2023-01-17T08:53:22.487Z,8.27
2023-01-17T08:55:24.089Z,8.29
2023-01-17T08:57:25.687Z,8.24
2023-01-17T08:59:29.146Z,8.22
2023-01-17T09:01:32.426Z,8.29
2023-01-17T09:03:34.297Z,8.35
2023-01-17T09:05:35.886Z,8.35
2023-01-17T09:07:37.439Z,8.35
2023-01-17T09:09:39.017Z,8.38
2023-01-17T09:11:40.792Z,8.36
2023-01-17T09:13:42.626Z,8.34
2023-01-17T09:15:45.534Z,8.33
2023-01-17T09:17:47.241Z,8.37
2023-01-17T09:19:48.921Z,8.42
2023-01-17T09:21:50.564Z,8.48
2023-01-17T09:23:52.378Z,8.54
2023-01-17T09:25:54.145Z,8.58
2023-01-17T09:27:55.653Z,8.61
2023-01-17T09:29:57.398Z,8.67
2023-01-17T09:32:00.368Z,8.67
2023-01-17T09:34:01.910Z,8.66
2023-01-17T09:36:04.492Z,8.64
2023-01-17T09:38:06.030Z,8.72
2023-01-17T09:40:13.619Z,8.71
2023-01-17T09:42:25.889Z,8.66
2023-01-17T09:44:35.327Z,8.63
2023-01-17T09:46:44.440Z,8.62
2023-01-17T09:48:49.225Z,8.61
2023-01-17T09:50:55.034Z,8.67
2023-01-17T09:53:00.482Z,8.62
2023-01-17T09:55:02.038Z,8.69
2023-01-17T09:57:13.537Z,8.73
2023-01-17T09:59:32.710Z,8.80
2023-01-17T10:01:45.204Z,8.82
2023-01-17T10:04:06.779Z,8.91
2023-01-17T10:06:26.465Z,8.89
2023-01-17T10:08:40.351Z,8.90
2023-01-17T10:10:46.220Z,8.95
2023-01-17T10:12:53.917Z,9.00
2023-01-17T10:15:16.130Z,9.08
2023-01-17T10:17:29.441Z,9.14
2023-01-17T10:19:45.681Z,9.15
2023-01-17T10:22:26.697Z,9.20
2023-01-17T10:25:04.464Z,9.22
2023-01-17T10:27:18.285Z,9.21
2023-01-17T10:29:21.266Z,9.24
2023-01-17T10:31:24.287Z,9.23
2023-01-17T10:33:29.779Z,9.29
2023-01-17T10:35:36.843Z,9.32
2023-01-17T10:37:42.329Z,9.32
2023-01-17T10:39:47.785Z,9.34
2023-01-17T10:41:54.108Z,9.35
2023-01-17T10:44:03.978Z,9.39
2023-01-17T10:46:08.792Z,9.39
2023-01-17T10:48:15.443Z,9.40
2023-01-17T10:50:17.248Z,9.44
2023-01-17T10:52:34.730Z,9.48
2023-01-17T10:54:55.673Z,9.54
2023-01-17T10:56:58.515Z,9.39
2023-01-17T10:59:16.387Z,9.38
2023-01-17T11:01:21.036Z,9.32
2023-01-17T11:03:22.821Z,9.28
2023-01-17T11:05:26.860Z,9.28
2023-01-17T11:07:30.206Z,9.27
2023-01-17T11:09:38.508Z,9.26
2023-01-17T11:11:46.888Z,9.15
2023-01-17T11:13:50.632Z,9.15
2023-01-17T11:15:54.322Z,9.11
2023-01-17T11:18:02.298Z,9.07
2023-01-17T11:20:23.422Z,9.09
2023-01-17T11:22:25.153Z,9.02
2023-01-17T11:24:35.049Z,9.05
2023-01-17T11:26:44.263Z,9.07
2023-01-17T11:28:45.965Z,9.02
2023-01-17T11:30:51.851Z,9.03
2023-01-17T11:32:55.515Z,9.06
2023-01-17T11:35:15.294Z,9.06
2023-01-17T11:37:20.189Z,9.06
2023-01-17T11:39:25.195Z,9.06
2023-01-17T11:41:33.943Z,9.09
2023-01-17T11:43:52.435Z,9.16
2023-01-17T11:46:02.819Z,9.24
2023-01-17T11:48:10.533Z,9.29
2023-01-17T11:50:24.406Z,9.37
2023-01-17T11:52:33.753Z,9.47
2023-01-17T11:54:37.146Z,9.63
2023-01-17T11:56:40.683Z,9.75
2023-01-17T11:58:42.764Z,9.81
2023-01-17T12:00:49.112Z,9.98
2023-01-17T12:03:10.747Z,10.14
2023-01-17T12:05:40.380Z,10.26
2023-01-17T12:07:53.423Z,10.27
2023-01-17T12:10:05.211Z,10.28
2023-01-17T12:12:16.525Z,10.37
2023-01-17T12:14:30.061Z,10.18
2023-01-17T12:16:48.770Z,10.12
2023-01-17T12:18:55.139Z,10.19
2023-01-17T12:21:15.165Z,10.19
2023-01-17T12:23:47.361Z,10.03
2023-01-17T12:26:05.601Z,10.10
2023-01-17T12:28:25.075Z,9.96
2023-01-17T12:30:43.304Z,10.02
2023-01-17T12:33:03.927Z,9.93
2023-01-17T12:35:15.076Z,9.77
2023-01-17T12:37:22.796Z,9.73
2023-01-17T12:39:30.731Z,9.86
2023-01-17T12:41:36.545Z,9.87
2023-01-17T12:43:44.479Z,9.89
2023-01-17T12:45:49.317Z,9.94
2023-01-17T12:47:59.625Z,9.84
2023-01-17T12:50:08.288Z,9.90
2023-01-17T12:52:19.419Z,9.92
2023-01-17T12:54:27.243Z,10.03
2023-01-17T12:56:34.398Z,10.08
2023-01-17T12:58:40.436Z,9.98
2023-01-17T13:00:45.332Z,10.08
2023-01-17T13:02:52.817Z,10.16
2023-01-17T13:05:00.689Z,10.16
2023-01-17T13:07:12.453Z,10.08
2023-01-17T13:09:18.182Z,10.14
2023-01-17T13:11:24.650Z,10.16
2023-01-17T13:13:27.892Z,10.02
2023-01-17T13:15:35.918Z,9.93
2023-01-17T13:17:46.350Z,9.77
2023-01-17T13:19:52.574Z,9.54
2023-01-17T13:21:56.235Z,9.45
2023-01-17T13:24:15.776Z,9.33
2023-01-17T13:26:28.199Z,9.36
2023-01-17T13:28:43.497Z,9.40
2023-01-17T13:31:12.486Z,9.40
2023-01-17T13:33:25.579Z,9.33
2023-01-17T13:35:32.905Z,9.14
2023-01-17T13:37:52.435Z,9.24
2023-01-17T13:40:17.947Z,9.39
2023-01-17T13:42:27.362Z,9.29
2023-01-17T13:44:29.786Z,9.11
2023-01-17T13:46:31.522Z,9.10
2023-01-17T13:48:35.628Z,9.04
2023-01-17T13:50:50.040Z,9.06
2023-01-17T13:52:51.592Z,9.00
2023-01-17T13:54:57.483Z,9.15
2023-01-17T13:57:33.736Z,9.15
2023-01-17T13:59:35.294Z,9.36
2023-01-17T14:01:50.786Z,9.48
2023-01-17T14:04:05.896Z,9.31
2023-01-17T14:06:29.312Z,9.39
2023-01-17T14:08:30.929Z,9.31
2023-01-17T14:10:38.507Z,9.37
2023-01-17T14:12:40.113Z,9.54
2023-01-17T14:14:50.466Z,9.59
2023-01-17T14:16:52.098Z,9.67
2023-01-17T14:18:55.055Z,9.73
2023-01-17T14:21:12.518Z,9.71
2023-01-17T14:23:35.152Z,9.63
2023-01-17T14:25:40.301Z,9.75
2023-01-17T14:27:47.917Z,9.75
2023-01-17T14:29:54.379Z,9.79
2023-01-17T14:32:01.025Z,9.75
2023-01-17T14:34:12.371Z,9.57
2023-01-17T14:36:24.594Z,9.46
2023-01-17T14:38:28.089Z,9.48
2023-01-17T14:40:31.396Z,9.41
2023-01-17T14:42:33.303Z,9.51
2023-01-17T14:44:34.960Z,9.46
2023-01-17T14:46:36.569Z,9.54
2023-01-17T14:48:40.328Z,9.42
2023-01-17T14:50:43.132Z,9.35
2023-01-17T14:52:46.194Z,9.39
2023-01-17T14:54:48.683Z,9.46
2023-01-17T14:56:50.330Z,9.38
2023-01-17T14:59:11.886Z,9.37
2023-01-17T15:01:15.142Z,9.40
2023-01-17T15:03:17.023Z,9.41
2023-01-17T15:05:21.943Z,9.51
2023-01-17T15:07:23.811Z,9.48
2023-01-17T15:09:29.723Z,9.56
2023-01-17T15:11:35.240Z,9.57
2023-01-17T15:13:44.811Z,9.60
2023-01-17T15:15:46.962Z,9.47
2023-01-17T15:17:48.602Z,9.41
2023-01-17T15:19:55.730Z,9.46
2023-01-17T15:21:57.473Z,9.47
2023-01-17T15:24:02.157Z,9.38
2023-01-17T15:26:07.497Z,9.25
2023-01-17T15:28:12.288Z,9.26
2023-01-17T15:30:23.181Z,9.29
2023-01-17T15:32:26.034Z,9.18
2023-01-17T15:34:30.197Z,9.14
2023-01-17T15:36:32.541Z,9.26
2023-01-17T15:38:39.253Z,9.36
2023-01-17T15:40:43.052Z,9.37
2023-01-17T15:42:49.096Z,9.32
2023-01-17T15:44:54.455Z,9.31
2023-01-17T15:46:56.460Z,9.21
2023-01-17T15:49:22.777Z,9.23
2023-01-17T15:51:32.287Z,9.18
2023-01-17T15:53:35.886Z,9.06
2023-01-17T15:55:38.840Z,9.10
2023-01-17T15:57:40.697Z,9.18
2023-01-17T15:59:46.230Z,9.27
2023-01-17T16:01:53.842Z,9.29
2023-01-17T16:03:55.736Z,9.31
2023-01-17T16:05:59.184Z,9.36
2023-01-17T16:08:42.516Z,9.41
2023-01-17T16:10:44.818Z,9.43
2023-01-17T16:12:47.485Z,9.47
2023-01-17T16:15:10.461Z,9.47
2023-01-17T16:17:17.581Z,9.48
2023-01-17T16:19:19.093Z,9.56
2023-01-17T16:21:24.123Z,9.60
2023-01-17T16:23:25.800Z,9.63
2023-01-17T16:25:27.423Z,9.61
2023-01-17T16:27:30.104Z,9.57
2023-01-17T16:29:31.640Z,9.36
2023-01-17T16:31:34.692Z,9.20
2023-01-17T16:33:36.271Z,9.17
2023-01-17T16:35:37.895Z,9.20
2023-01-17T16:37:39.434Z,9.27
2023-01-17T16:39:41.099Z,9.25
2023-01-17T16:41:42.665Z,9.29
2023-01-17T16:43:44.247Z,9.30
2023-01-17T16:45:47.523Z,9.29
2023-01-17T16:47:51.855Z,9.31
2023-01-17T16:49:53.626Z,9.33
2023-01-17T16:51:55.161Z,9.30
2023-01-17T16:53:56.715Z,9.28
2023-01-17T16:56:05.140Z,9.29
2023-01-17T16:58:06.730Z,9.09
2023-01-17T17:00:10.712Z,9.00
2023-01-17T17:02:12.438Z,9.08
2023-01-17T17:04:15.355Z,9.06
2023-01-17T17:06:16.892Z,8.94
2023-01-17T17:08:18.620Z,8.69
2023-01-17T17:10:21.662Z,8.55
2023-01-17T17:12:23.224Z,8.54
2023-01-17T17:14:24.799Z,8.70
2023-01-17T17:16:28.937Z,8.80
2023-01-17T17:18:30.578Z,8.77
2023-01-17T17:20:33.482Z,8.57
2023-01-17T17:22:34.999Z,8.49
2023-01-17T17:24:36.641Z,8.27
2023-01-17T17:26:38.228Z,8.29
2023-01-17T17:28:39.824Z,8.15
2023-01-17T17:30:41.415Z,8.25
2023-01-17T17:32:45.835Z,8.26
2023-01-17T17:34:47.626Z,8.16
2023-01-17T17:36:51.922Z,7.98
2023-01-17T17:38:54.430Z,8.03
2023-01-17T17:40:55.976Z,8.02
2023-01-17T17:42:57.520Z,8.07
2023-01-17T17:44:59.334Z,8.05
2023-01-17T17:47:01.200Z,8.09
2023-01-17T17:49:03.680Z,8.14
2023-01-17T17:51:05.767Z,7.99
2023-01-17T17:53:08.704Z,8.05
2023-01-17T17:55:10.795Z,7.98
2023-01-17T17:57:12.326Z,7.95
2023-01-17T17:59:15.437Z,8.07
2023-01-17T18:01:17.112Z,8.22
2023-01-17T18:03:18.740Z,8.32
2023-01-17T18:05:20.311Z,8.36
2023-01-17T18:07:21.908Z,8.36
2023-01-17T18:09:25.036Z,8.22
2023-01-17T18:11:27.755Z,8.36
2023-01-17T18:13:30.579Z,8.31
2023-01-17T18:15:32.166Z,8.25
2023-01-17T18:17:33.882Z,8.14
2023-01-17T18:19:35.594Z,8.18
2023-01-17T18:21:38.936Z,8.06
2023-01-17T18:23:43.098Z,7.97
2023-01-17T18:25:46.058Z,8.09
2023-01-17T18:27:47.608Z,8.17
2023-01-17T18:29:49.152Z,8.23
2023-01-17T18:31:51.754Z,8.11
2023-01-17T18:33:54.072Z,7.99
2023-01-17T18:35:56.806Z,8.02
2023-01-17T18:37:59.459Z,8.16
2023-01-17T18:40:01.057Z,8.30
2023-01-17T18:42:04.403Z,8.30
2023-01-17T18:44:06.843Z,8.42
2023-01-17T18:46:09.880Z,8.49
2023-01-17T18:48:11.481Z,8.53
2023-01-17T18:50:13.185Z,8.53
2023-01-17T18:52:14.710Z,8.59
2023-01-17T18:54:16.317Z,8.60
2023-01-17T18:56:20.205Z,8.61
2023-01-17T18:58:23.941Z,8.59
2023-01-17T19:00:25.788Z,8.66
2023-01-17T19:02:27.362Z,8.69
2023-01-17T19:04:28.968Z,8.61
2023-01-17T19:06:32.949Z,8.42
2023-01-17T19:08:35.027Z,8.18
2023-01-17T19:10:36.648Z,8.32
2023-01-17T19:12:38.346Z,8.17
2023-01-17T19:14:41.295Z,8.07
2023-01-17T19:16:43.610Z,8.02
2023-01-17T19:18:45.384Z,7.96
2023-01-17T19:20:46.996Z,7.75
2023-01-17T19:22:48.630Z,7.56
2023-01-17T19:24:50.222Z,7.54
2023-01-17T19:26:51.887Z,7.36
2023-01-17T19:28:55.193Z,7.31
2023-01-17T19:31:06.292Z,7.45
2023-01-17T19:33:07.905Z,7.41
2023-01-17T19:35:09.858Z,7.35
2023-01-17T19:37:11.626Z,7.41
2023-01-17T19:39:13.191Z,7.52
2023-01-17T19:41:17.035Z,7.63
2023-01-17T19:43:18.601Z,7.78
2023-01-17T19:45:20.147Z,7.93
2023-01-17T19:47:23.067Z,7.97
2023-01-17T19:49:24.704Z,8.05
2023-01-17T19:51:26.983Z,8.13
2023-01-17T19:53:28.593Z,8.22
2023-01-17T19:55:30.137Z,8.27
2023-01-17T19:57:31.906Z,8.32
2023-01-17T19:59:33.480Z,8.31
2023-01-17T20:01:35.256Z,8.37
2023-01-17T20:03:38.842Z,8.43
2023-01-17T20:05:40.445Z,8.48
2023-01-17T20:07:42.038Z,8.51
2023-01-17T20:09:43.682Z,8.56
2023-01-17T20:11:45.258Z,8.60
2023-01-17T20:13:47.589Z,8.63
2023-01-17T20:15:52.313Z,8.64
2023-01-17T20:17:54.068Z,8.67
2023-01-17T20:19:57.233Z,8.69
2023-01-17T20:21:58.842Z,8.66
2023-01-17T20:24:01.092Z,8.63
2023-01-17T20:26:02.981Z,8.57
2023-01-17T20:28:04.532Z,8.55
2023-01-17T20:30:19.225Z,8.52
2023-01-17T20:32:21.852Z,8.52
2023-01-17T20:34:23.506Z,8.46
2023-01-17T20:36:27.020Z,8.43
2023-01-17T20:38:29.807Z,8.45
2023-01-17T20:40:31.399Z,8.45
2023-01-17T20:42:35.935Z,8.43
2023-01-17T20:44:37.517Z,8.43
2023-01-17T20:46:40.833Z,8.47
2023-01-17T20:48:46.794Z,8.49
2023-01-17T20:50:48.335Z,8.51
2023-01-17T20:52:51.241Z,8.49
2023-01-17T20:54:52.842Z,8.49
2023-01-17T20:56:54.425Z,8.46
2023-01-17T20:58:56.090Z,8.46
2023-01-17T21:00:58.667Z,8.49
2023-01-17T21:03:00.303Z,8.57
2023-01-17T21:05:01.877Z,8.56
2023-01-17T21:07:03.781Z,8.62
2023-01-17T21:09:07.494Z,8.62
2023-01-17T21:11:11.194Z,8.56
2023-01-17T21:13:12.787Z,8.60
2023-01-17T21:15:14.463Z,8.61
2023-01-17T21:17:16.097Z,8.63
2023-01-17T21:19:17.679Z,8.60
2023-01-17T21:21:21.619Z,8.62
2023-01-17T21:23:23.232Z,8.63
2023-01-17T21:25:26.167Z,8.58
2023-01-17T21:27:27.743Z,8.60
2023-01-17T21:29:29.492Z,8.61
2023-01-17T21:31:31.390Z,8.60
2023-01-17T21:33:33.038Z,8.59
2023-01-17T21:35:34.616Z,8.58
2023-01-17T21:37:36.318Z,8.60
2023-01-17T21:39:38.244Z,8.59
2023-01-17T21:41:43.096Z,8.59
2023-01-17T21:43:44.698Z,8.59
2023-01-17T21:45:46.434Z,8.64
2023-01-17T21:47:48.046Z,8.66
2023-01-17T21:49:49.584Z,8.68
2023-01-17T21:51:51.357Z,8.73
2023-01-17T21:53:52.958Z,8.71
2023-01-17T21:55:59.863Z,8.72
2023-01-17T21:58:02.788Z,8.78
2023-01-17T22:00:05.665Z,8.81
2023-01-17T22:02:07.302Z,8.76
2023-01-17T22:04:08.926Z,8.76
2023-01-17T22:06:10.620Z,8.70
2023-01-17T22:08:14.907Z,8.66
2023-01-17T22:10:17.168Z,8.68
2023-01-17T22:12:19.059Z,8.72
2023-01-17T22:14:21.980Z,8.81
2023-01-17T22:16:25.234Z,8.86
2023-01-17T22:18:28.111Z,8.74
2023-01-17T22:20:29.723Z,8.36
2023-01-17T22:22:32.286Z,8.40
2023-01-17T22:24:33.921Z,8.33
2023-01-17T22:26:35.501Z,8.30
2023-01-17T22:28:38.153Z,8.36
2023-01-17T22:30:41.064Z,8.30
2023-01-17T22:32:42.699Z,8.30
2023-01-17T22:34:44.547Z,8.05
2023-01-17T22:36:46.150Z,7.98
2023-01-17T22:38:47.787Z,8.02
2023-01-17T22:40:49.359Z,8.06
2023-01-17T22:42:51.333Z,8.17
2023-01-17T22:44:52.942Z,8.25
2023-01-17T22:46:56.295Z,8.34
2023-01-17T22:48:58.467Z,8.10
2023-01-17T22:51:02.366Z,8.19
2023-01-17T22:53:04.105Z,8.31
2023-01-17T22:55:06.203Z,8.39
2023-01-17T22:57:07.781Z,8.41
2023-01-17T22:59:09.285Z,8.47
2023-01-17T23:01:12.873Z,8.53
2023-01-17T23:03:15.896Z,8.52
2023-01-17T23:05:17.507Z,8.54
2023-01-17T23:07:19.024Z,8.54
2023-01-17T23:09:20.699Z,8.56
2023-01-17T23:11:24.999Z,8.56
2023-01-17T23:13:26.614Z,8.56
2023-01-17T23:15:28.325Z,8.41
2023-01-17T23:17:29.977Z,8.42
2023-01-17T23:19:38.107Z,8.49
2023-01-17T23:21:39.748Z,8.48
2023-01-17T23:23:41.240Z,8.51
2023-01-17T23:25:42.847Z,8.57
2023-01-17T23:27:46.072Z,8.60
2023-01-17T23:29:47.560Z,8.59
2023-01-17T23:31:49.050Z,8.56
2023-01-17T23:33:50.615Z,8.60
2023-01-17T23:35:53.489Z,8.64
2023-01-17T23:37:55.631Z,8.64
2023-01-17T23:39:57.230Z,8.57
2023-01-17T23:41:58.765Z,8.50
2023-01-17T23:44:00.332Z,8.49
2023-01-17T23:46:02.618Z,8.44
2023-01-17T23:48:05.757Z,8.43
2023-01-17T23:50:08.540Z,8.37
2023-01-17T23:52:11.474Z,8.40
2023-01-17T23:54:13.131Z,8.41
2023-01-17T23:56:18.000Z,8.36
2023-01-17T23:58:21.603Z,8.35
